sensor_id;sensor_type;location;lat;lon;timestamp;pressure;altitude;pressure_sealevel;temperature;humidity
18749;BME280;9503;53.560;10.246;2023-03-04T07:02:33;101199.00;;;5.94;100.00
18749;BME280;9503;53.560;10.246;2023-03-04T07:05:00;101191.97;;;6.25;100.00
18749;BME280;9503;53.560;10.246;2023-03-04T07:07:26;101199.94;;;6.41;100.00
18749;BME280;9503;53.560;10.246;2023-03-04T07:09:53;101199.91;;;6.53;100.00
18749;BME280;9503;53.560;10.246;2023-03-04T07:12:20;101202.34;;;6.63;100.00
18749;BME280;9503;53.560;10.246;2023-03-04T07:14:46;101200.34;;;6.71;100.00
18749;BME280;9503;53.560;10.246;2023-03-04T07:17:13;101196.16;;;6.48;100.00
18749;BME280;9503;53.560;10.246;2023-03-04T07:19:41;101200.38;;;6.35;100.00
18749;BME280;9503;53.560;10.246;2023-03-04T07:22:09;101190.06;;;6.34;100.00
18749;BME280;9503;53.560;10.246;2023-03-04T07:24:35;101207.78;;;6.44;100.00
18749;BME280;9503;53.560;10.246;2023-03-04T07:27:02;101201.91;;;6.45;100.00
18749;BME280;9503;53.560;10.246;2023-03-04T07:29:29;101206.34;;;6.48;100.00
18749;BME280;9503;53.560;10.246;2023-03-04T07:31:55;101203.47;;;6.43;100.00
18749;BME280;9503;53.560;10.246;2023-03-04T07:34:22;101207.00;;;6.22;100.00
18749;BME280;9503;53.560;10.246;2023-03-04T07:36:50;101200.38;;;6.47;100.00
18749;BME280;9503;53.560;10.246;2023-03-04T07:39:17;101206.22;;;6.46;100.00
18749;BME280;9503;53.560;10.246;2023-03-04T07:41:43;101195.69;;;6.53;100.00
18749;BME280;9503;53.560;10.246;2023-03-04T07:44:11;101208.75;;;6.46;100.00
18749;BME280;9503;53.560;10.246;2023-03-04T07:46:38;101205.78;;;6.52;100.00
18749;BME280;9503;53.560;10.246;2023-03-04T07:49:04;101216.84;;;6.76;100.00
18749;BME280;9503;53.560;10.246;2023-03-04T07:51:31;101211.75;;;6.76;100.00
18749;BME280;9503;53.560;10.246;2023-03-04T07:54:00;101211.88;;;6.65;100.00
18749;BME280;9503;53.560;10.246;2023-03-04T07:56:29;101212.53;;;6.63;100.00
18749;BME280;9503;53.560;10.246;2023-03-04T07:58:56;101217.16;;;6.80;100.00
18749;BME280;9503;53.560;10.246;2023-03-04T08:01:25;101208.56;;;6.55;100.00
18749;BME280;9503;53.560;10.246;2023-03-04T08:03:52;101210.75;;;6.38;100.00
18749;BME280;9503;53.560;10.246;2023-03-04T08:06:20;101218.53;;;6.28;100.00
18749;BME280;9503;53.560;10.246;2023-03-04T08:08:47;101229.59;;;6.64;100.00
18749;BME280;9503;53.560;10.246;2023-03-04T08:11:17;101218.16;;;6.82;100.00
18749;BME280;9503;53.560;10.246;2023-03-04T08:13:44;101232.59;;;6.58;100.00
18749;BME280;9503;53.560;10.246;2023-03-04T08:16:12;101236.66;;;6.80;100.00
18749;BME280;9503;53.560;10.246;2023-03-04T08:18:40;101239.84;;;6.89;100.00
18749;BME280;9503;53.560;10.246;2023-03-04T08:21:09;101238.09;;;6.88;99.94
18749;BME280;9503;53.560;10.246;2023-03-04T08:23:36;101236.66;;;6.80;99.33
18749;BME280;9503;53.560;10.246;2023-03-04T08:26:05;101234.69;;;6.64;100.00
18749;BME280;9503;53.560;10.246;2023-03-04T08:28:34;101245.31;;;6.70;100.00
18749;BME280;9503;53.560;10.246;2023-03-04T08:31:00;101245.00;;;6.77;100.00
18749;BME280;9503;53.560;10.246;2023-03-04T08:33:27;101228.59;;;6.74;100.00
18749;BME280;9503;53.560;10.246;2023-03-04T08:35:54;101248.44;;;6.54;100.00
18749;BME280;9503;53.560;10.246;2023-03-04T08:38:20;101242.75;;;6.82;100.00
18749;BME280;9503;53.560;10.246;2023-03-04T08:40:51;101245.94;;;7.03;99.45
18749;BME280;9503;53.560;10.246;2023-03-04T08:43:18;101235.28;;;7.08;98.09
18749;BME280;9503;53.560;10.246;2023-03-04T08:45:46;101232.09;;;6.99;98.10
18749;BME280;9503;53.560;10.246;2023-03-04T08:48:12;101243.09;;;6.86;98.54
18749;BME280;9503;53.560;10.246;2023-03-04T08:50:39;101237.56;;;6.80;97.93
18749;BME280;9503;53.560;10.246;2023-03-04T08:53:06;101239.16;;;7.03;98.55
18749;BME280;9503;53.560;10.246;2023-03-04T08:55:33;101236.75;;;6.93;97.79
18749;BME280;9503;53.560;10.246;2023-03-04T08:57:59;101235.44;;;6.75;99.07
18749;BME280;9503;53.560;10.246;2023-03-04T09:00:26;101229.31;;;6.96;98.52
18749;BME280;9503;53.560;10.246;2023-03-04T09:02:54;101234.91;;;6.90;96.83
18749;BME280;9503;53.560;10.246;2023-03-04T09:05:21;101235.97;;;6.94;95.98
18749;BME280;9503;53.560;10.246;2023-03-04T09:07:47;101235.50;;;7.11;95.25
18749;BME280;9503;53.560;10.246;2023-03-04T09:10:15;101240.19;;;6.82;96.31
18749;BME280;9503;53.560;10.246;2023-03-04T09:12:42;101227.97;;;7.13;95.61
18749;BME280;9503;53.560;10.246;2023-03-04T09:15:09;101241.25;;;7.20;95.50
18749;BME280;9503;53.560;10.246;2023-03-04T09:17:37;101247.25;;;7.09;96.35
18749;BME280;9503;53.560;10.246;2023-03-04T09:20:07;101242.50;;;7.14;95.24
18749;BME280;9503;53.560;10.246;2023-03-04T09:22:34;101245.25;;;7.17;94.07
18749;BME280;9503;53.560;10.246;2023-03-04T09:25:01;101252.22;;;7.19;94.16
18749;BME280;9503;53.560;10.246;2023-03-04T09:27:28;101249.94;;;6.99;94.11
18749;BME280;9503;53.560;10.246;2023-03-04T09:29:55;101250.50;;;6.95;94.50
18749;BME280;9503;53.560;10.246;2023-03-04T09:32:21;101242.41;;;6.89;94.20
18749;BME280;9503;53.560;10.246;2023-03-04T09:34:48;101241.66;;;7.27;93.02
18749;BME280;9503;53.560;10.246;2023-03-04T09:37:16;101245.03;;;7.14;89.92
18749;BME280;9503;53.560;10.246;2023-03-04T09:39:43;101245.16;;;7.04;89.31
18749;BME280;9503;53.560;10.246;2023-03-04T09:42:26;101239.59;;;7.09;89.18
18749;BME280;9503;53.560;10.246;2023-03-04T09:44:54;101245.09;;;6.90;89.69
18749;BME280;9503;53.560;10.246;2023-03-04T09:47:22;101230.97;;;7.07;89.22
18749;BME280;9503;53.560;10.246;2023-03-04T09:49:54;101242.50;;;7.02;90.25
18749;BME280;9503;53.560;10.246;2023-03-04T09:52:32;101240.19;;;7.05;89.75
18749;BME280;9503;53.560;10.246;2023-03-04T09:55:09;101245.47;;;7.57;89.80
18749;BME280;9503;53.560;10.246;2023-03-04T09:57:46;101242.41;;;7.62;87.81
18749;BME280;9503;53.560;10.246;2023-03-04T10:00:15;101234.09;;;7.65;86.82
18749;BME280;9503;53.560;10.246;2023-03-04T10:03:00;101227.75;;;7.71;86.49
18749;BME280;9503;53.560;10.246;2023-03-04T10:05:30;101232.44;;;7.65;86.04
18749;BME280;9503;53.560;10.246;2023-03-04T10:08:08;101240.75;;;7.38;86.65
18749;BME280;9503;53.560;10.246;2023-03-04T10:10:39;101239.16;;;7.52;86.05
18749;BME280;9503;53.560;10.246;2023-03-04T10:13:13;101247.47;;;7.74;84.48
18749;BME280;9503;53.560;10.246;2023-03-04T10:15:42;101238.03;;;7.48;84.56
18749;BME280;9503;53.560;10.246;2023-03-04T10:18:13;101232.53;;;7.42;83.33
18749;BME280;9503;53.560;10.246;2023-03-04T10:20:52;101234.50;;;7.46;82.30
18749;BME280;9503;53.560;10.246;2023-03-04T10:23:24;101223.75;;;7.13;82.78
18749;BME280;9503;53.560;10.246;2023-03-04T10:25:52;101235.03;;;7.17;83.17
18749;BME280;9503;53.560;10.246;2023-03-04T10:28:20;101247.84;;;7.42;81.94
18749;BME280;9503;53.560;10.246;2023-03-04T10:30:51;101238.09;;;7.86;81.10
18749;BME280;9503;53.560;10.246;2023-03-04T10:33:20;101225.25;;;7.98;79.05
18749;BME280;9503;53.560;10.246;2023-03-04T10:35:50;101239.34;;;8.18;77.83
18749;BME280;9503;53.560;10.246;2023-03-04T10:38:19;101247.50;;;8.25;76.03
18749;BME280;9503;53.560;10.246;2023-03-04T10:40:48;101248.78;;;8.19;76.97
18749;BME280;9503;53.560;10.246;2023-03-04T10:43:16;101256.13;;;8.01;77.66
18749;BME280;9503;53.560;10.246;2023-03-04T10:45:44;101253.00;;;7.80;77.98
18749;BME280;9503;53.560;10.246;2023-03-04T10:48:19;101242.28;;;7.86;78.42
18749;BME280;9503;53.560;10.246;2023-03-04T10:50:46;101242.94;;;7.95;77.83
18749;BME280;9503;53.560;10.246;2023-03-04T10:53:30;101244.59;;;8.08;77.61
18749;BME280;9503;53.560;10.246;2023-03-04T10:56:00;101251.50;;;8.09;77.32
18749;BME280;9503;53.560;10.246;2023-03-04T11:01:23;101240.03;;;8.15;79.24
18749;BME280;9503;53.560;10.246;2023-03-04T11:03:50;101241.59;;;8.26;77.58
18749;BME280;9503;53.560;10.246;2023-03-04T11:06:19;101236.47;;;8.38;77.44
18749;BME280;9503;53.560;10.246;2023-03-04T11:08:52;101248.56;;;8.67;76.52
18749;BME280;9503;53.560;10.246;2023-03-04T11:11:26;101235.53;;;8.24;75.37
18749;BME280;9503;53.560;10.246;2023-03-04T11:13:56;101242.41;;;8.25;75.60
18749;BME280;9503;53.560;10.246;2023-03-04T11:16:27;101242.94;;;7.95;75.55
18749;BME280;9503;53.560;10.246;2023-03-04T11:18:58;101250.59;;;7.95;76.28
18749;BME280;9503;53.560;10.246;2023-03-04T11:21:29;101227.75;;;8.10;75.92
18749;BME280;9503;53.560;10.246;2023-03-04T11:23:59;101233.56;;;7.82;76.53
18749;BME280;9503;53.560;10.246;2023-03-04T11:26:30;101238.44;;;8.04;74.75
18749;BME280;9503;53.560;10.246;2023-03-04T11:29:04;101238.63;;;7.94;77.27
18749;BME280;9503;53.560;10.246;2023-03-04T11:31:38;101235.00;;;8.03;75.66
18749;BME280;9503;53.560;10.246;2023-03-04T11:34:12;101229.50;;;8.11;75.70
18749;BME280;9503;53.560;10.246;2023-03-04T11:36:51;101231.69;;;7.80;76.49
18749;BME280;9503;53.560;10.246;2023-03-04T11:39:23;101226.34;;;8.40;75.33
18749;BME280;9503;53.560;10.246;2023-03-04T11:41:57;101238.00;;;8.23;76.02
18749;BME280;9503;53.560;10.246;2023-03-04T11:44:27;101236.41;;;8.25;76.49
18749;BME280;9503;53.560;10.246;2023-03-04T11:47:23;101226.03;;;8.48;76.20
18749;BME280;9503;53.560;10.246;2023-03-04T11:53:06;101223.78;;;8.53;73.99
18749;BME280;9503;53.560;10.246;2023-03-04T11:55:40;101222.50;;;8.46;72.54
18749;BME280;9503;53.560;10.246;2023-03-04T11:58:43;101224.97;;;8.45;70.84
18749;BME280;9503;53.560;10.246;2023-03-04T12:01:16;101218.69;;;8.53;70.82
18749;BME280;9503;53.560;10.246;2023-03-04T12:04:10;101216.38;;;8.84;69.89
18749;BME280;9503;53.560;10.246;2023-03-04T12:06:49;101211.91;;;9.08;70.45
18749;BME280;9503;53.560;10.246;2023-03-04T12:09:34;101203.59;;;8.97;69.26
18749;BME280;9503;53.560;10.246;2023-03-04T12:12:20;101210.50;;;8.72;70.07
18749;BME280;9503;53.560;10.246;2023-03-04T12:14:52;101206.84;;;8.81;69.84
18749;BME280;9503;53.560;10.246;2023-03-04T12:17:47;101204.13;;;9.06;69.62
18749;BME280;9503;53.560;10.246;2023-03-04T12:20:43;101191.22;;;8.64;70.01
18749;BME280;9503;53.560;10.246;2023-03-04T12:23:25;101186.41;;;8.68;70.41
18749;BME280;9503;53.560;10.246;2023-03-04T12:25:59;101201.94;;;8.84;69.10
18749;BME280;9503;53.560;10.246;2023-03-04T12:28:39;101190.31;;;9.46;67.20
18749;BME280;9503;53.560;10.246;2023-03-04T12:31:19;101200.38;;;9.14;66.89
18749;BME280;9503;53.560;10.246;2023-03-04T12:34:04;101191.22;;;8.77;66.46
18749;BME280;9503;53.560;10.246;2023-03-04T12:36:42;101193.78;;;9.18;65.39
18749;BME280;9503;53.560;10.246;2023-03-04T12:39:26;101179.47;;;8.94;65.47
18749;BME280;9503;53.560;10.246;2023-03-04T12:42:02;101176.06;;;8.80;66.94
18749;BME280;9503;53.560;10.246;2023-03-04T12:44:36;101173.91;;;8.73;67.64
18749;BME280;9503;53.560;10.246;2023-03-04T12:47:16;101169.09;;;9.19;68.33
18749;BME280;9503;53.560;10.246;2023-03-04T12:49:55;101178.28;;;9.02;67.49
18749;BME280;9503;53.560;10.246;2023-03-04T12:52:33;101170.78;;;8.77;68.24
18749;BME280;9503;53.560;10.246;2023-03-04T12:55:06;101175.97;;;8.78;66.99
18749;BME280;9503;53.560;10.246;2023-03-04T12:57:34;101171.09;;;8.68;68.05
18749;BME280;9503;53.560;10.246;2023-03-04T13:00:13;101163.81;;;8.61;69.13
18749;BME280;9503;53.560;10.246;2023-03-04T13:03:02;101168.94;;;8.61;67.96
18749;BME280;9503;53.560;10.246;2023-03-04T13:05:43;101166.97;;;8.57;68.45
18749;BME280;9503;53.560;10.246;2023-03-04T13:08:27;101155.91;;;8.84;68.55
18749;BME280;9503;53.560;10.246;2023-03-04T13:11:00;101167.59;;;8.81;69.56
18749;BME280;9503;53.560;10.246;2023-03-04T13:13:38;101158.81;;;9.04;68.98
18749;BME280;9503;53.560;10.246;2023-03-04T13:16:23;101163.13;;;8.64;70.64
18749;BME280;9503;53.560;10.246;2023-03-04T13:18:53;101155.69;;;8.40;71.30
18749;BME280;9503;53.560;10.246;2023-03-04T13:21:22;101158.78;;;8.76;68.23
18749;BME280;9503;53.560;10.246;2023-03-04T13:23:52;101164.56;;;9.43;65.38
18749;BME280;9503;53.560;10.246;2023-03-04T13:26:26;101156.09;;;9.58;63.56
18749;BME280;9503;53.560;10.246;2023-03-04T13:29:08;101156.47;;;9.22;63.85
18749;BME280;9503;53.560;10.246;2023-03-04T13:31:57;101164.38;;;9.69;65.16
18749;BME280;9503;53.560;10.246;2023-03-04T13:34:45;101158.66;;;9.16;67.43
18749;BME280;9503;53.560;10.246;2023-03-04T13:37:25;101155.78;;;8.96;69.00
18749;BME280;9503;53.560;10.246;2023-03-04T13:40:31;101154.00;;;8.54;70.56
18749;BME280;9503;53.560;10.246;2023-03-04T13:43:32;101154.88;;;8.41;71.60
18749;BME280;9503;53.560;10.246;2023-03-04T13:46:30;101156.34;;;8.11;72.62
18749;BME280;9503;53.560;10.246;2023-03-04T13:49:13;101162.72;;;8.44;72.88
18749;BME280;9503;53.560;10.246;2023-03-04T13:51:43;101152.91;;;8.64;71.44
18749;BME280;9503;53.560;10.246;2023-03-04T13:54:15;101151.53;;;8.69;70.14
18749;BME280;9503;53.560;10.246;2023-03-04T13:56:44;101153.53;;;8.46;71.13
18749;BME280;9503;53.560;10.246;2023-03-04T13:59:27;101158.41;;;8.17;72.66
18749;BME280;9503;53.560;10.246;2023-03-04T14:01:58;101159.72;;;7.85;74.26
18749;BME280;9503;53.560;10.246;2023-03-04T14:04:31;101168.81;;;7.68;75.37
18749;BME280;9503;53.560;10.246;2023-03-04T14:07:00;101162.94;;;7.31;76.63
18749;BME280;9503;53.560;10.246;2023-03-04T14:09:28;101157.47;;;7.13;78.18
18749;BME280;9503;53.560;10.246;2023-03-04T14:11:58;101157.00;;;7.44;78.34
18749;BME280;9503;53.560;10.246;2023-03-04T14:14:29;101164.69;;;7.32;79.08
18749;BME280;9503;53.560;10.246;2023-03-04T14:16:58;101162.19;;;7.45;78.81
18749;BME280;9503;53.560;10.246;2023-03-04T14:19:27;101159.22;;;7.64;78.41
18749;BME280;9503;53.560;10.246;2023-03-04T14:21:54;101159.22;;;7.78;76.60
18749;BME280;9503;53.560;10.246;2023-03-04T14:24:22;101161.72;;;8.02;75.59
18749;BME280;9503;53.560;10.246;2023-03-04T14:26:49;101160.41;;;7.83;75.38
18749;BME280;9503;53.560;10.246;2023-03-04T14:29:29;101152.72;;;7.69;76.56
18749;BME280;9503;53.560;10.246;2023-03-04T14:31:57;101155.53;;;7.47;77.67
18749;BME280;9503;53.560;10.246;2023-03-04T14:34:28;101148.97;;;7.51;77.19
18749;BME280;9503;53.560;10.246;2023-03-04T14:36:56;101149.75;;;7.25;77.06
18749;BME280;9503;53.560;10.246;2023-03-04T14:39:25;101148.41;;;7.30;77.57
18749;BME280;9503;53.560;10.246;2023-03-04T14:41:52;101148.25;;;7.15;78.55
18749;BME280;9503;53.560;10.246;2023-03-04T14:44:28;101147.66;;;7.19;78.24
18749;BME280;9503;53.560;10.246;2023-03-04T14:47:08;101153.97;;;7.25;78.12
18749;BME280;9503;53.560;10.246;2023-03-04T14:49:36;101153.59;;;7.32;78.28
18749;BME280;9503;53.560;10.246;2023-03-04T14:52:04;101154.53;;;7.45;76.96
18749;BME280;9503;53.560;10.246;2023-03-04T14:54:33;101152.25;;;7.37;77.06
18749;BME280;9503;53.560;10.246;2023-03-04T14:57:18;101147.78;;;7.46;76.92
18749;BME280;9503;53.560;10.246;2023-03-04T14:59:46;101141.59;;;7.42;77.43
18749;BME280;9503;53.560;10.246;2023-03-04T15:02:33;101142.56;;;7.19;79.08
18749;BME280;9503;53.560;10.246;2023-03-04T15:05:07;101147.63;;;7.06;78.64
18749;BME280;9503;53.560;10.246;2023-03-04T15:07:35;101143.56;;;7.22;78.04
18749;BME280;9503;53.560;10.246;2023-03-04T15:10:05;101147.03;;;7.10;77.88
18749;BME280;9503;53.560;10.246;2023-03-04T15:12:34;101147.28;;;7.27;77.89
18749;BME280;9503;53.560;10.246;2023-03-04T15:15:04;101143.78;;;7.25;77.74
18749;BME280;9503;53.560;10.246;2023-03-04T15:17:34;101139.66;;;7.27;77.59
18749;BME280;9503;53.560;10.246;2023-03-04T15:20:26;101148.34;;;7.17;78.70
18749;BME280;9503;53.560;10.246;2023-03-04T15:23:04;101146.66;;;7.29;78.43
18749;BME280;9503;53.560;10.246;2023-03-04T15:25:33;101144.81;;;7.15;79.25
18749;BME280;9503;53.560;10.246;2023-03-04T15:28:01;101146.84;;;7.07;80.37
18749;BME280;9503;53.560;10.246;2023-03-04T15:30:30;101146.06;;;7.08;80.73
18749;BME280;9503;53.560;10.246;2023-03-04T15:32:59;101149.53;;;6.97;80.55
18749;BME280;9503;53.560;10.246;2023-03-04T15:35:28;101145.28;;;6.73;82.12
18749;BME280;9503;53.560;10.246;2023-03-04T15:37:56;101150.81;;;6.79;82.96
18749;BME280;9503;53.560;10.246;2023-03-04T15:40:27;101139.97;;;6.70;84.75
18749;BME280;9503;53.560;10.246;2023-03-04T15:42:55;101147.38;;;6.67;85.71
18749;BME280;9503;53.560;10.246;2023-03-04T15:45:24;101144.22;;;6.57;86.64
18749;BME280;9503;53.560;10.246;2023-03-04T15:47:51;101142.75;;;6.61;87.66
18749;BME280;9503;53.560;10.246;2023-03-04T15:50:20;101145.88;;;6.69;87.50
18749;BME280;9503;53.560;10.246;2023-03-04T15:52:48;101149.63;;;6.62;87.40
18749;BME280;9503;53.560;10.246;2023-03-04T15:55:17;101146.44;;;6.41;88.25
18749;BME280;9503;53.560;10.246;2023-03-04T15:57:48;101148.88;;;6.28;89.40
18749;BME280;9503;53.560;10.246;2023-03-04T16:00:16;101151.09;;;6.23;89.32
18749;BME280;9503;53.560;10.246;2023-03-04T16:02:42;101145.34;;;6.26;89.49
18749;BME280;9503;53.560;10.246;2023-03-04T16:05:10;101151.31;;;6.38;88.96
18749;BME280;9503;53.560;10.246;2023-03-04T16:07:38;101147.56;;;6.21;89.30
18749;BME280;9503;53.560;10.246;2023-03-04T16:10:11;101146.81;;;6.11;89.29
18749;BME280;9503;53.560;10.246;2023-03-04T16:12:40;101143.94;;;6.18;88.82
18749;BME280;9503;53.560;10.246;2023-03-04T16:15:12;101140.16;;;6.24;88.81
18749;BME280;9503;53.560;10.246;2023-03-04T16:17:40;101147.56;;;6.21;89.52
18749;BME280;9503;53.560;10.246;2023-03-04T16:20:10;101149.00;;;6.29;89.43
18749;BME280;9503;53.560;10.246;2023-03-04T16:22:39;101148.88;;;6.16;89.67
18749;BME280;9503;53.560;10.246;2023-03-04T16:25:09;101143.47;;;6.23;89.35
18749;BME280;9503;53.560;10.246;2023-03-04T16:27:37;101143.09;;;5.83;90.75
18749;BME280;9503;53.560;10.246;2023-03-04T16:30:05;101148.78;;;5.91;91.10
18749;BME280;9503;53.560;10.246;2023-03-04T16:32:32;101137.03;;;5.93;91.05
18749;BME280;9503;53.560;10.246;2023-03-04T16:34:59;101135.88;;;5.78;92.02
18749;BME280;9503;53.560;10.246;2023-03-04T16:37:26;101135.81;;;6.00;91.70
18749;BME280;9503;53.560;10.246;2023-03-04T16:39:54;101129.84;;;5.99;91.11
18749;BME280;9503;53.560;10.246;2023-03-04T16:42:21;101131.16;;;5.94;91.54
18749;BME280;9503;53.560;10.246;2023-03-04T16:44:48;101128.28;;;6.01;91.28
18749;BME280;9503;53.560;10.246;2023-03-04T16:47:15;101125.53;;;5.98;91.53
18749;BME280;9503;53.560;10.246;2023-03-04T16:49:42;101124.59;;;5.86;91.55
18749;BME280;9503;53.560;10.246;2023-03-04T16:52:19;101117.09;;;5.76;92.25
18749;BME280;9503;53.560;10.246;2023-03-04T16:54:47;101124.59;;;5.86;92.39
18749;BME280;9503;53.560;10.246;2023-03-04T16:57:15;101121.06;;;5.84;92.26
18749;BME280;9503;53.560;10.246;2023-03-04T16:59:42;101126.38;;;5.75;92.20
18749;BME280;9503;53.560;10.246;2023-03-04T17:02:13;101125.03;;;5.69;93.51
18749;BME280;9503;53.560;10.246;2023-03-04T17:04:39;101122.91;;;5.63;92.83
18749;BME280;9503;53.560;10.246;2023-03-04T17:07:06;101134.31;;;5.68;93.46
18749;BME280;9503;53.560;10.246;2023-03-04T17:09:32;101121.25;;;5.52;94.41
18749;BME280;9503;53.560;10.246;2023-03-04T17:12:02;101124.91;;;5.55;94.29
18749;BME280;9503;53.560;10.246;2023-03-04T17:14:30;101131.78;;;5.68;93.58
18749;BME280;9503;53.560;10.246;2023-03-04T17:16:56;101129.91;;;5.66;93.54
18749;BME280;9503;53.560;10.246;2023-03-04T17:19:23;101140.50;;;5.72;93.04
18749;BME280;9503;53.560;10.246;2023-03-04T17:21:50;101133.88;;;5.62;93.40
18749;BME280;9503;53.560;10.246;2023-03-04T17:24:16;101137.03;;;5.48;93.75
18749;BME280;9503;53.560;10.246;2023-03-04T17:26:43;101137.81;;;5.47;93.61
18749;BME280;9503;53.560;10.246;2023-03-04T17:29:10;101134.75;;;5.63;93.12
18749;BME280;9503;53.560;10.246;2023-03-04T17:31:37;101137.16;;;5.49;94.09
18749;BME280;9503;53.560;10.246;2023-03-04T17:34:04;101128.41;;;5.46;93.85
18749;BME280;9503;53.560;10.246;2023-03-04T17:36:31;101129.97;;;5.44;94.22
18749;BME280;9503;53.560;10.246;2023-03-04T17:38:59;101131.69;;;5.33;94.52
18749;BME280;9503;53.560;10.246;2023-03-04T17:41:25;101138.28;;;5.19;94.97
18749;BME280;9503;53.560;10.246;2023-03-04T17:43:53;101134.53;;;5.26;95.72
18749;BME280;9503;53.560;10.246;2023-03-04T17:46:23;101143.53;;;5.33;95.21
18749;BME280;9503;53.560;10.246;2023-03-04T17:48:52;101139.25;;;5.10;96.06
18749;BME280;9503;53.560;10.246;2023-03-04T17:51:20;101133.19;;;5.19;96.60
18749;BME280;9503;53.560;10.246;2023-03-04T17:53:47;101136.97;;;5.24;95.97
18749;BME280;9503;53.560;10.246;2023-03-04T17:56:13;101136.75;;;5.21;95.47
18749;BME280;9503;53.560;10.246;2023-03-04T17:58:40;101142.44;;;5.07;95.83
